createdAt,value
2022-10-20T00:02:36.966Z,2.85
2022-10-20T00:05:40.495Z,3.67
2022-10-20T00:08:46.024Z,2.55
2022-10-20T00:11:50.690Z,2.87
2022-10-20T00:14:53.590Z,7.35
2022-10-20T00:17:57.857Z,3.58
2022-10-20T00:21:00.742Z,3.42
2022-10-20T00:24:04.369Z,2.80
2022-10-20T00:27:07.623Z,3.70
2022-10-20T00:30:11.152Z,4.85
2022-10-20T00:33:16.370Z,3.33
2022-10-20T00:36:20.905Z,3.72
2022-10-20T00:39:23.663Z,5.28
2022-10-20T00:42:27.118Z,2.10
2022-10-20T00:45:30.473Z,6.72
2022-10-20T00:48:34.911Z,3.20
2022-10-20T00:51:37.674Z,4.25
2022-10-20T00:54:40.803Z,3.10
2022-10-20T00:57:47.190Z,2.75
2022-10-20T01:00:52.589Z,3.95
2022-10-20T01:03:56.134Z,3.90
2022-10-20T01:06:59.447Z,3.00
2022-10-20T01:10:04.139Z,2.78
2022-10-20T01:13:36.501Z,2.17
2022-10-20T01:16:58.274Z,2.95
2022-10-20T01:20:10.541Z,4.30
2022-10-20T01:23:33.501Z,4.18
2022-10-20T01:26:55.548Z,2.83
2022-10-20T01:30:07.021Z,5.87
2022-10-20T01:33:25.435Z,4.30
2022-10-20T01:36:36.340Z,2.87
2022-10-20T01:39:45.607Z,2.67
2022-10-20T01:42:51.100Z,5.55
2022-10-20T01:45:54.803Z,2.87
2022-10-20T01:48:57.899Z,2.90
2022-10-20T01:52:01.492Z,3.65
2022-10-20T01:55:12.133Z,3.03
2022-10-20T01:58:40.256Z,2.60
2022-10-20T02:02:02.656Z,3.05
2022-10-20T02:05:27.910Z,2.95
2022-10-20T02:08:44.833Z,3.72
2022-10-20T02:12:16.850Z,3.90
2022-10-20T02:15:24.232Z,2.60
2022-10-20T02:18:32.239Z,6.37
2022-10-20T02:21:35.066Z,3.10
2022-10-20T02:24:40.176Z,3.97
2022-10-20T02:27:46.991Z,4.68
2022-10-20T02:30:50.159Z,2.75
2022-10-20T02:33:54.953Z,3.05
2022-10-20T02:36:59.127Z,2.85
2022-10-20T02:40:02.081Z,2.53
2022-10-20T02:43:05.321Z,3.00
2022-10-20T02:46:08.277Z,4.43
2022-10-20T02:49:11.355Z,2.35
2022-10-20T02:52:14.652Z,4.22
2022-10-20T02:58:26.369Z,3.28
2022-10-20T03:01:29.934Z,2.50
2022-10-20T03:04:32.758Z,3.62
2022-10-20T03:07:37.558Z,3.53
2022-10-20T03:10:41.749Z,4.00
2022-10-20T03:13:44.796Z,4.35
2022-10-20T03:16:47.718Z,4.03
2022-10-20T03:19:50.807Z,3.95
2022-10-20T03:22:53.675Z,3.47
2022-10-20T03:26:07.522Z,3.35
2022-10-20T03:29:10.349Z,2.42
2022-10-20T03:32:13.880Z,2.50
2022-10-20T03:35:16.673Z,2.75
2022-10-20T03:38:20.038Z,6.07
2022-10-20T03:41:22.991Z,2.72
2022-10-20T03:44:26.558Z,3.67
2022-10-20T03:47:29.449Z,3.25
2022-10-20T03:50:32.706Z,2.80
2022-10-20T03:53:36.812Z,5.68
2022-10-20T03:56:40.755Z,4.40
2022-10-20T03:59:43.566Z,4.65
2022-10-20T04:02:47.512Z,3.97
2022-10-20T04:05:50.598Z,3.25
2022-10-20T04:08:53.892Z,3.58
2022-10-20T04:11:57.085Z,3.78
2022-10-20T04:14:59.873Z,4.55
2022-10-20T04:18:02.924Z,2.87
2022-10-20T04:21:05.861Z,2.90
2022-10-20T04:24:08.971Z,3.83
2022-10-20T04:27:11.907Z,5.15
2022-10-20T04:30:15.230Z,6.28
2022-10-20T04:33:18.037Z,5.50
2022-10-20T04:36:22.626Z,3.05
2022-10-20T04:39:25.614Z,4.72
2022-10-20T04:42:29.475Z,4.53
2022-10-20T04:45:32.263Z,5.75
2022-10-20T04:48:35.725Z,4.93
2022-10-20T04:51:38.499Z,3.75
2022-10-20T04:54:41.641Z,2.90
2022-10-20T04:57:44.601Z,4.97
2022-10-20T05:00:47.750Z,4.32
2022-10-20T05:03:50.752Z,3.45
2022-10-20T05:06:53.750Z,5.28
2022-10-20T05:09:56.289Z,9.18
2022-10-20T05:12:59.139Z,7.05
2022-10-20T05:16:01.855Z,6.12
2022-10-20T05:19:07.002Z,4.95
2022-10-20T05:22:09.679Z,6.53
2022-10-20T05:25:35.982Z,4.75
2022-10-20T05:28:40.080Z,5.40
2022-10-20T05:31:44.733Z,6.68
2022-10-20T05:34:47.865Z,3.85
2022-10-20T05:37:51.150Z,8.60
2022-10-20T05:40:53.942Z,8.55
2022-10-20T05:43:59.949Z,7.03
2022-10-20T05:47:02.849Z,9.63
2022-10-20T05:50:07.524Z,12.70
2022-10-20T05:53:10.333Z,11.50
2022-10-20T05:56:19.395Z,10.95
2022-10-20T05:59:23.269Z,9.23
2022-10-20T06:02:26.401Z,8.48
2022-10-20T06:05:30.733Z,7.67
2022-10-20T06:08:34.237Z,6.03
2022-10-20T06:11:39.563Z,5.10
2022-10-20T06:14:42.595Z,6.12
2022-10-20T06:17:47.124Z,6.95
2022-10-20T06:20:59.705Z,7.13
2022-10-20T06:24:05.775Z,5.75
2022-10-20T06:27:09.673Z,4.40
2022-10-20T06:30:12.755Z,5.53
2022-10-20T06:33:17.047Z,5.55
2022-10-20T06:36:23.703Z,6.18
2022-10-20T06:39:26.662Z,6.25
2022-10-20T06:42:29.813Z,4.82
2022-10-20T06:45:33.083Z,6.72
2022-10-20T06:48:36.320Z,5.40
2022-10-20T06:51:39.293Z,4.78
2022-10-20T06:54:42.475Z,5.80
2022-10-20T06:57:45.331Z,5.12
2022-10-20T07:00:48.716Z,10.23
2022-10-20T07:03:54.028Z,3.25
2022-10-20T07:06:57.215Z,3.70
2022-10-20T07:09:59.959Z,5.00
2022-10-20T07:13:03.781Z,10.70
2022-10-20T07:16:08.315Z,10.43
2022-10-20T07:19:11.616Z,9.88
2022-10-20T07:22:14.355Z,13.57
2022-10-20T07:25:17.338Z,14.15
2022-10-20T07:28:21.896Z,6.68
2022-10-20T07:31:27.821Z,5.75
2022-10-20T07:34:33.855Z,8.13
2022-10-20T07:37:37.216Z,12.10
2022-10-20T07:40:40.327Z,11.48
2022-10-20T07:43:44.113Z,8.55
2022-10-20T07:46:49.178Z,8.02
2022-10-20T07:52:54.675Z,10.80
2022-10-20T07:55:57.687Z,9.85
2022-10-20T07:59:01.431Z,8.00
2022-10-20T08:02:04.754Z,9.80
2022-10-20T08:05:08.885Z,11.05
2022-10-20T08:08:11.722Z,12.25
2022-10-20T08:11:15.331Z,14.95
2022-10-20T08:14:18.381Z,9.43
2022-10-20T08:20:41.782Z,7.93
2022-10-20T08:23:46.572Z,4.15
2022-10-20T08:26:49.911Z,8.80
2022-10-20T08:30:00.286Z,5.15
2022-10-20T08:33:15.180Z,4.72
2022-10-20T08:36:18.275Z,5.12
2022-10-20T08:39:21.035Z,5.40
2022-10-20T08:42:24.373Z,5.95
2022-10-20T08:45:29.406Z,6.68
2022-10-20T08:48:35.041Z,3.85
2022-10-20T08:54:48.609Z,5.00
2022-10-20T08:57:51.362Z,3.90
2022-10-20T09:00:58.219Z,5.85
2022-10-20T09:04:14.492Z,7.68
2022-10-20T09:07:25.277Z,3.58
2022-10-20T09:10:37.832Z,3.95
2022-10-20T09:13:40.898Z,5.57
2022-10-20T09:16:59.854Z,3.67
2022-10-20T09:20:04.987Z,4.30
2022-10-20T09:23:35.625Z,4.62
2022-10-20T09:30:20.160Z,6.10
2022-10-20T09:33:30.044Z,5.20
2022-10-20T09:36:35.407Z,6.55
2022-10-20T09:39:51.359Z,5.20
2022-10-20T09:43:03.277Z,6.60
2022-10-20T09:46:08.236Z,3.62
2022-10-20T09:49:22.943Z,4.60
2022-10-20T09:52:30.671Z,3.35
2022-10-20T09:55:35.962Z,4.35
2022-10-20T09:58:39.573Z,3.45
2022-10-20T10:02:22.462Z,6.32
2022-10-20T10:05:33.305Z,3.00
2022-10-20T10:08:45.577Z,6.32
2022-10-20T10:12:06.581Z,4.78
2022-10-20T10:15:27.947Z,3.30
2022-10-20T10:18:31.366Z,3.67
2022-10-20T10:21:49.070Z,3.67
2022-10-20T10:24:55.157Z,3.45
2022-10-20T10:28:00.664Z,3.28
2022-10-20T10:31:18.706Z,6.30
2022-10-20T10:34:21.376Z,4.18
2022-10-20T10:37:24.425Z,4.00
2022-10-20T10:40:35.626Z,3.60
2022-10-20T10:43:48.847Z,5.47
2022-10-20T10:47:01.640Z,6.65
2022-10-20T10:50:35.844Z,6.57
2022-10-20T10:53:53.990Z,5.12
2022-10-20T10:57:03.412Z,6.60
2022-10-20T11:00:36.867Z,5.37
2022-10-20T11:03:49.353Z,3.50
2022-10-20T11:07:21.579Z,3.00
2022-10-20T11:10:37.200Z,3.87
2022-10-20T11:13:58.843Z,5.50
2022-10-20T11:17:08.781Z,4.55
2022-10-20T11:20:38.935Z,3.42
2022-10-20T11:24:00.431Z,3.22
2022-10-20T11:27:11.837Z,9.80
2022-10-20T11:30:19.515Z,2.62
2022-10-20T11:33:24.421Z,4.10
2022-10-20T11:36:32.205Z,3.05
2022-10-20T11:40:19.667Z,5.43
2022-10-20T11:43:27.746Z,3.87
2022-10-20T11:46:53.235Z,2.20
2022-10-20T11:49:56.440Z,1.80
2022-10-20T11:53:34.477Z,5.25
2022-10-20T11:57:02.776Z,1.70
2022-10-20T12:00:25.729Z,2.90
2022-10-20T12:04:03.132Z,3.58
2022-10-20T12:07:18.908Z,1.77
2022-10-20T12:10:43.012Z,2.95
2022-10-20T12:14:00.646Z,3.67
2022-10-20T12:17:22.559Z,4.22
2022-10-20T12:20:25.363Z,1.98
2022-10-20T12:23:45.373Z,3.40
2022-10-20T12:27:10.017Z,3.12
2022-10-20T12:30:55.691Z,4.22
2022-10-20T12:34:02.081Z,2.35
2022-10-20T12:37:09.088Z,2.33
2022-10-20T12:40:11.750Z,5.95
2022-10-20T12:43:34.969Z,5.03
2022-10-20T12:46:43.249Z,2.33
2022-10-20T12:49:54.921Z,1.85
2022-10-20T12:53:29.819Z,3.05
2022-10-20T12:56:36.808Z,4.40
2022-10-20T12:59:41.309Z,2.62
2022-10-20T13:02:46.759Z,3.30
2022-10-20T13:05:49.566Z,3.92
2022-10-20T13:09:10.453Z,6.12
2022-10-20T13:12:29.069Z,5.22
2022-10-20T13:15:55.087Z,2.80
2022-10-20T13:18:58.038Z,3.80
2022-10-20T13:22:38.125Z,2.90
2022-10-20T13:25:45.901Z,1.67
2022-10-20T13:28:51.019Z,4.12
2022-10-20T13:32:20.351Z,3.33
2022-10-20T13:35:30.293Z,3.00
2022-10-20T13:38:46.407Z,2.42
2022-10-20T13:42:27.299Z,4.82
2022-10-20T13:45:51.848Z,1.80
2022-10-20T13:48:57.891Z,4.07
2022-10-20T13:52:04.794Z,6.12
2022-10-20T13:55:12.966Z,4.37
2022-10-20T13:58:21.688Z,1.50
2022-10-20T14:01:25.065Z,2.78
2022-10-20T14:04:37.156Z,3.03
2022-10-20T14:07:42.358Z,1.90
2022-10-20T14:10:57.840Z,2.47
2022-10-20T14:14:01.719Z,2.25
2022-10-20T14:17:06.992Z,3.85
2022-10-20T14:20:19.266Z,3.33
2022-10-20T14:23:23.718Z,3.78
2022-10-20T14:26:26.937Z,7.18
2022-10-20T14:29:33.064Z,12.03
2022-10-20T14:32:40.115Z,5.72
2022-10-20T14:35:49.366Z,3.05
2022-10-20T14:38:55.581Z,4.22
2022-10-20T14:42:00.567Z,4.75
2022-10-20T14:45:04.412Z,2.17
2022-10-20T14:48:14.735Z,3.03
2022-10-20T14:51:35.365Z,2.80
2022-10-20T14:54:42.525Z,4.20
2022-10-20T14:57:46.981Z,2.72
2022-10-20T15:00:51.480Z,2.65
2022-10-20T15:07:18.201Z,3.47
2022-10-20T15:10:23.481Z,4.18
2022-10-20T15:13:32.685Z,7.25
2022-10-20T15:16:45.895Z,6.07
2022-10-20T15:19:49.005Z,4.75
2022-10-20T15:22:54.685Z,3.75
2022-10-20T15:26:01.734Z,3.70
2022-10-20T15:29:08.976Z,2.42
2022-10-20T15:32:12.552Z,6.03
2022-10-20T15:35:19.610Z,3.58
2022-10-20T15:38:23.161Z,3.15
2022-10-20T15:41:28.631Z,5.97
2022-10-20T15:44:32.033Z,3.17
2022-10-20T15:47:34.940Z,3.72
2022-10-20T15:50:38.621Z,2.20
2022-10-20T15:53:41.642Z,2.90
2022-10-20T15:56:45.082Z,2.12
2022-10-20T15:59:48.142Z,4.12
2022-10-20T16:02:51.880Z,8.73
2022-10-20T16:05:55.237Z,5.22
2022-10-20T16:08:58.167Z,15.63
2022-10-20T16:12:02.069Z,9.27
2022-10-20T16:15:06.798Z,6.22
2022-10-20T16:18:10.790Z,16.83
2022-10-20T16:21:13.871Z,21.37
2022-10-20T16:24:17.279Z,13.75
2022-10-20T16:27:20.231Z,11.02
2022-10-20T16:30:23.546Z,15.55
2022-10-20T16:33:28.284Z,8.77
2022-10-20T16:36:31.967Z,12.60
2022-10-20T16:39:38.052Z,16.08
2022-10-20T16:42:46.093Z,34.22
2022-10-20T16:45:49.039Z,34.28
2022-10-20T16:48:52.377Z,27.37
2022-10-20T16:51:55.734Z,21.50
2022-10-20T16:54:59.581Z,10.98
2022-10-20T16:58:03.584Z,5.87
2022-10-20T17:01:13.965Z,5.60
2022-10-20T17:04:18.002Z,4.43
2022-10-20T17:07:21.434Z,3.78
2022-10-20T17:10:26.430Z,4.50
2022-10-20T17:13:30.491Z,4.90
2022-10-20T17:16:34.711Z,5.07
2022-10-20T17:19:41.449Z,4.53
2022-10-20T17:22:44.900Z,3.20
2022-10-20T17:25:49.075Z,6.03
2022-10-20T17:28:55.123Z,6.53
2022-10-20T17:31:59.994Z,4.50
2022-10-20T17:35:03.467Z,6.25
2022-10-20T17:38:07.183Z,3.83
2022-10-20T17:41:13.503Z,2.60
2022-10-20T17:44:17.247Z,2.55
2022-10-20T17:47:20.448Z,2.08
2022-10-20T17:50:25.959Z,3.58
2022-10-20T17:53:41.277Z,5.00
2022-10-20T17:56:45.164Z,2.87
2022-10-20T17:59:53.493Z,3.12
2022-10-20T18:02:59.206Z,2.35
2022-10-20T18:06:12.105Z,3.20
2022-10-20T18:09:17.557Z,3.22
2022-10-20T18:12:21.623Z,2.40
2022-10-20T18:15:25.989Z,2.50
2022-10-20T18:18:29.850Z,7.05
2022-10-20T18:21:33.749Z,7.47
2022-10-20T18:24:38.316Z,32.23
2022-10-20T18:27:42.954Z,33.53
2022-10-20T18:30:46.495Z,42.45
2022-10-20T18:33:53.183Z,38.55
2022-10-20T18:36:57.080Z,32.90
2022-10-20T18:40:02.973Z,45.33
2022-10-20T18:43:06.713Z,39.60
2022-10-20T18:46:10.809Z,33.97
2022-10-20T18:49:16.766Z,47.13
2022-10-20T18:52:20.235Z,44.72
2022-10-20T18:55:24.238Z,45.20
2022-10-20T18:58:30.317Z,43.42
2022-10-20T19:01:36.494Z,30.80
2022-10-20T19:04:40.401Z,28.95
2022-10-20T19:07:52.513Z,31.60
2022-10-20T19:10:56.650Z,36.00
2022-10-20T19:14:01.086Z,30.10
2022-10-20T19:17:05.106Z,30.17
2022-10-20T19:20:10.431Z,21.35
2022-10-20T19:23:14.189Z,21.35
2022-10-20T19:26:20.110Z,12.33
2022-10-20T19:29:25.321Z,11.52
2022-10-20T19:32:29.183Z,16.23
2022-10-20T19:35:33.756Z,26.75
2022-10-20T19:38:43.760Z,13.62
2022-10-20T19:41:48.312Z,4.85
2022-10-20T19:44:53.153Z,6.25
2022-10-20T19:47:56.755Z,9.88
2022-10-20T19:51:10.267Z,10.73
2022-10-20T19:54:15.025Z,16.45
2022-10-20T19:57:20.181Z,14.80
2022-10-20T20:00:23.816Z,17.52
2022-10-20T20:03:28.005Z,20.30
2022-10-20T20:06:34.985Z,16.80
2022-10-20T20:09:42.281Z,22.90
2022-10-20T20:12:45.672Z,19.27
2022-10-20T20:15:49.690Z,11.57
2022-10-20T20:18:53.425Z,4.90
2022-10-20T20:21:56.907Z,11.07
2022-10-20T20:25:00.090Z,7.85
2022-10-20T20:28:05.298Z,9.88
2022-10-20T20:31:11.567Z,5.43
2022-10-20T20:34:15.793Z,32.42
2022-10-20T20:37:18.892Z,14.15
2022-10-20T20:40:22.234Z,11.90
2022-10-20T20:43:25.612Z,15.32
2022-10-20T20:46:31.292Z,11.18
2022-10-20T20:52:37.490Z,12.48
2022-10-20T20:55:40.308Z,13.85
2022-10-20T20:58:49.108Z,10.50
2022-10-20T21:01:51.924Z,14.63
2022-10-20T21:04:55.712Z,15.05
2022-10-20T21:07:58.737Z,11.43
2022-10-20T21:11:14.244Z,9.95
2022-10-20T21:14:17.249Z,12.20
2022-10-20T21:17:20.514Z,13.07
2022-10-20T21:20:23.488Z,12.95
2022-10-20T21:23:26.972Z,11.15
2022-10-20T21:26:30.392Z,9.27
2022-10-20T21:29:33.759Z,10.15
2022-10-20T21:32:36.897Z,12.68
2022-10-20T21:35:40.802Z,10.85
2022-10-20T21:38:44.174Z,10.27
2022-10-20T21:41:49.113Z,9.35
2022-10-20T21:44:52.000Z,11.00
2022-10-20T21:47:56.167Z,9.00
2022-10-20T21:50:59.087Z,8.80
2022-10-20T21:54:08.304Z,10.43
2022-10-20T21:57:11.210Z,6.45
2022-10-20T22:00:14.867Z,11.35
2022-10-20T22:03:17.913Z,10.15
2022-10-20T22:06:22.925Z,10.75
2022-10-20T22:12:28.860Z,10.70
2022-10-20T22:15:37.515Z,6.80
2022-10-20T22:18:40.409Z,9.43
2022-10-20T22:21:47.131Z,8.15
2022-10-20T22:24:50.004Z,4.57
2022-10-20T22:27:53.484Z,4.22
2022-10-20T22:30:56.435Z,6.57
2022-10-20T22:34:00.841Z,6.62
2022-10-20T22:37:03.748Z,6.35
2022-10-20T22:40:08.680Z,7.55
2022-10-20T22:43:11.562Z,7.50
2022-10-20T22:46:16.116Z,9.73
2022-10-20T22:49:18.866Z,10.85
2022-10-20T22:52:21.889Z,7.30
2022-10-20T22:55:24.706Z,8.50
2022-10-20T22:58:27.794Z,8.82
2022-10-20T23:01:30.627Z,7.43
2022-10-20T23:04:33.768Z,8.23
2022-10-20T23:07:36.998Z,6.85
2022-10-20T23:10:40.492Z,8.50
2022-10-20T23:13:43.602Z,6.15
2022-10-20T23:16:46.713Z,5.60
2022-10-20T23:19:49.843Z,6.82
2022-10-20T23:22:52.976Z,7.07
2022-10-20T23:25:57.564Z,9.20
2022-10-20T23:29:03.131Z,8.48
2022-10-20T23:32:06.279Z,8.20
2022-10-20T23:35:09.661Z,11.80
2022-10-20T23:38:13.031Z,8.77
2022-10-20T23:41:16.200Z,10.07
2022-10-20T23:44:19.394Z,11.23
2022-10-20T23:47:22.320Z,11.55
2022-10-20T23:50:26.875Z,8.38
2022-10-20T23:53:30.649Z,11.88
2022-10-20T23:56:33.739Z,9.45
2022-10-20T23:59:37.353Z,10.30
